logo
Search for airport 
image banner adimage banner adimage banner ad
image banner ad

YXMB - Mareeba Hospital

Located in , Australia

ICAO - , IATA -

Data provided by Airmate  

General information

Coordinates: S16°59'12" E145°25'33"
Elevation is 1312 feet MSL.
 
View others Airports in Queensland

Operational data

Special qualification required
Current time UTC:
Current local time:
Weather at : YBCS - Cairns / Cairns Intl ( 37 km )
METAR: YBCS 162000Z AUTO 16008KT 9999 // NCD 18/13 Q1014 RF00.0/000.0
TAF: TAF YBCS 161714Z 1618/1718 17008KT 9999 FEW050 FM170100 12012KT CAVOK BECMG 1707/1709 22006KT CAVOK
View NOTAMs / SUP AIP / TFR affecting this airport [VIEW]
Communications frequencies: [VIEW]

Runways:

Airport contact information

Address: Australia

Satellite view of YXMB